createdAt,value
2023-02-06T00:00:21.951Z,1026.89
2023-02-06T00:01:06.118Z,1026.96
2023-02-06T00:01:51.167Z,1026.93
2023-02-06T00:02:35.236Z,1026.94
2023-02-06T00:03:17.228Z,1026.93
2023-02-06T00:03:59.109Z,1026.93
2023-02-06T00:06:12.405Z,1026.94
2023-02-06T00:06:52.920Z,1026.95
2023-02-06T00:07:33.467Z,1026.94
2023-02-06T00:08:14.162Z,1026.98
2023-02-06T00:08:55.456Z,1026.97
2023-02-06T00:09:36.611Z,1026.96
2023-02-06T00:10:18.096Z,1026.92
2023-02-06T00:10:58.619Z,1026.92
2023-02-06T00:11:39.130Z,1026.93
2023-02-06T00:12:19.670Z,1026.91
2023-02-06T00:14:17.820Z,1026.93
2023-02-06T00:14:58.330Z,1026.94
2023-02-06T00:15:39.194Z,1026.95
2023-02-06T00:16:19.463Z,1026.97
2023-02-06T00:16:59.883Z,1026.94
2023-02-06T00:17:40.404Z,1026.93
2023-02-06T00:18:20.954Z,1026.91
2023-02-06T00:19:01.549Z,1026.91
2023-02-06T00:19:42.044Z,1026.86
2023-02-06T00:20:22.538Z,1026.82
2023-02-06T00:21:03.056Z,1026.79
2023-02-06T00:21:43.588Z,1026.79
2023-02-06T00:22:24.102Z,1026.83
2023-02-06T00:23:04.635Z,1026.82
2023-02-06T00:23:46.035Z,1026.82
2023-02-06T00:24:26.530Z,1026.84
2023-02-06T00:25:07.057Z,1026.86
2023-02-06T00:25:47.563Z,1026.86
2023-02-06T00:26:28.082Z,1026.85
2023-02-06T00:27:08.608Z,1026.89
2023-02-06T00:27:49.162Z,1026.89
2023-02-06T00:28:29.654Z,1026.88
2023-02-06T00:29:10.230Z,1026.88
2023-02-06T00:31:08.789Z,1026.85
2023-02-06T00:31:49.190Z,1026.89
2023-02-06T00:32:29.672Z,1026.92
2023-02-06T00:33:10.243Z,1026.94
2023-02-06T00:33:50.809Z,1026.92
2023-02-06T00:34:32.177Z,1026.96
2023-02-06T00:35:12.715Z,1026.96
2023-02-06T00:35:53.265Z,1026.96
2023-02-06T00:36:33.798Z,1026.94
2023-02-06T00:37:14.477Z,1026.9
2023-02-06T00:37:55.000Z,1026.91
2023-02-06T00:38:35.539Z,1026.93
2023-02-06T00:39:16.086Z,1026.98
2023-02-06T00:41:14.027Z,1026.98
2023-02-06T00:41:54.539Z,1026.97
2023-02-06T00:42:35.031Z,1026.97
2023-02-06T00:43:15.568Z,1026.93
2023-02-06T00:43:56.048Z,1026.91
2023-02-06T00:44:36.550Z,1026.9
2023-02-06T00:45:17.023Z,1026.91
2023-02-06T00:45:58.212Z,1026.9
2023-02-06T00:46:38.769Z,1026.9
2023-02-06T00:47:19.210Z,1026.94
2023-02-06T00:47:59.778Z,1026.91
2023-02-06T00:48:40.317Z,1026.92
2023-02-06T00:49:20.812Z,1026.94
2023-02-06T00:50:01.351Z,1026.93
2023-02-06T00:50:41.878Z,1026.95
2023-02-06T00:51:23.049Z,1026.95
2023-02-06T00:52:03.576Z,1026.96
2023-02-06T00:52:44.605Z,1026.95
2023-02-06T00:54:57.453Z,1026.92
2023-02-06T00:55:38.020Z,1026.9
2023-02-06T00:56:18.563Z,1026.89
2023-02-06T00:56:59.080Z,1026.88
2023-02-06T00:57:39.646Z,1026.86
2023-02-06T00:58:20.149Z,1026.88
2023-02-06T00:59:00.701Z,1026.91
2023-02-06T00:59:41.224Z,1026.9
2023-02-06T01:00:21.772Z,1026.91
2023-02-06T01:01:02.305Z,1026.92
2023-02-06T01:01:42.895Z,1026.93
2023-02-06T01:02:23.480Z,1027
2023-02-06T01:03:04.044Z,1026.97
2023-02-06T01:03:44.567Z,1027.01
2023-02-06T01:04:25.068Z,1027.03
2023-02-06T01:06:23.023Z,1027.03
2023-02-06T01:07:03.589Z,1027.02
2023-02-06T01:07:44.147Z,1026.99
2023-02-06T01:08:24.731Z,1027
2023-02-06T01:09:05.329Z,1026.98
2023-02-06T01:09:45.940Z,1027.04
2023-02-06T01:10:26.508Z,1027.01
2023-02-06T01:11:07.056Z,1027.01
2023-02-06T01:11:47.557Z,1027.01
2023-02-06T01:12:28.098Z,1027
2023-02-06T01:13:08.758Z,1026.99
2023-02-06T01:13:49.337Z,1026.95
2023-02-06T01:14:29.848Z,1026.95
2023-02-06T01:15:10.436Z,1026.98
2023-02-06T01:15:51.393Z,1026.96
2023-02-06T01:16:31.586Z,1026.99
2023-02-06T01:17:12.191Z,1026.94
2023-02-06T01:17:52.706Z,1026.98
2023-02-06T01:18:33.265Z,1026.98
2023-02-06T01:19:13.818Z,1026.98
2023-02-06T01:19:54.365Z,1026.95
2023-02-06T01:20:34.891Z,1026.97
2023-02-06T01:21:15.393Z,1026.97
2023-02-06T01:21:55.938Z,1026.92
2023-02-06T01:22:36.446Z,1026.93
2023-02-06T01:26:31.127Z,1026.93
2023-02-06T01:27:11.648Z,1026.94
2023-02-06T01:27:53.091Z,1026.91
2023-02-06T01:28:33.573Z,1026.92
2023-02-06T01:29:14.118Z,1026.92
2023-02-06T01:29:54.667Z,1026.93
2023-02-06T01:30:35.231Z,1026.91
2023-02-06T01:31:15.758Z,1026.92
2023-02-06T01:31:56.280Z,1026.89
2023-02-06T01:32:36.868Z,1026.86
2023-02-06T01:33:17.384Z,1026.84
2023-02-06T01:33:57.977Z,1026.9
2023-02-06T01:34:38.553Z,1026.92
2023-02-06T01:35:19.083Z,1026.88
2023-02-06T01:35:59.597Z,1026.91
2023-02-06T01:36:40.137Z,1026.92
2023-02-06T01:37:20.729Z,1026.95
2023-02-06T01:39:34.561Z,1026.96
2023-02-06T01:40:15.074Z,1026.97
2023-02-06T01:40:56.167Z,1026.92
2023-02-06T01:41:36.708Z,1026.96
2023-02-06T01:42:17.225Z,1026.95
2023-02-06T01:42:57.775Z,1026.97
2023-02-06T01:43:38.293Z,1026.96
2023-02-06T01:44:18.833Z,1026.97
2023-02-06T01:46:31.592Z,1026.96
2023-02-06T01:47:12.095Z,1026.96
2023-02-06T01:47:52.596Z,1026.94
2023-02-06T01:48:33.148Z,1026.97
2023-02-06T01:49:13.704Z,1026.96
2023-02-06T01:49:55.107Z,1026.95
2023-02-06T01:50:35.624Z,1027
2023-02-06T01:51:16.247Z,1026.94
2023-02-06T01:51:56.809Z,1026.97
2023-02-06T01:52:37.318Z,1026.97
2023-02-06T01:53:17.863Z,1026.97
2023-02-06T01:53:58.374Z,1026.97
2023-02-06T01:54:38.924Z,1026.96
2023-02-06T01:55:19.450Z,1026.91
2023-02-06T01:57:17.944Z,1026.89
2023-02-06T01:57:58.459Z,1026.88
2023-02-06T01:58:39.026Z,1026.9
2023-02-06T01:59:19.511Z,1026.93
2023-02-06T02:00:00.135Z,1026.93
2023-02-06T02:00:40.616Z,1026.93
2023-02-06T02:03:56.985Z,1026.89
2023-02-06T02:04:37.498Z,1026.87
2023-02-06T02:05:18.029Z,1026.84
2023-02-06T02:05:58.550Z,1026.82
2023-02-06T02:06:39.085Z,1026.82
2023-02-06T02:07:20.520Z,1026.81
2023-02-06T02:08:01.029Z,1026.84
2023-02-06T02:08:41.518Z,1026.84
2023-02-06T02:09:22.037Z,1026.86
2023-02-06T02:10:02.600Z,1026.87
2023-02-06T02:10:43.144Z,1026.84
2023-02-06T02:11:23.703Z,1026.83
2023-02-06T02:12:04.236Z,1026.82
2023-02-06T02:12:44.928Z,1026.8
2023-02-06T02:13:25.345Z,1026.81
2023-02-06T02:14:05.898Z,1026.81
2023-02-06T02:16:03.880Z,1026.84
2023-02-06T02:16:44.932Z,1026.82
2023-02-06T02:17:25.460Z,1026.79
2023-02-06T02:18:06.023Z,1026.82
2023-02-06T02:18:46.591Z,1026.78
2023-02-06T02:19:27.127Z,1026.77
2023-02-06T02:20:07.690Z,1026.75
2023-02-06T02:20:48.216Z,1026.75
2023-02-06T02:21:28.793Z,1026.8
2023-02-06T02:22:09.343Z,1026.8
2023-02-06T02:22:49.895Z,1026.79
2023-02-06T02:23:30.519Z,1026.76
2023-02-06T02:24:10.927Z,1026.75
2023-02-06T02:24:51.486Z,1026.74
2023-02-06T02:25:32.073Z,1026.76
2023-02-06T02:27:29.752Z,1026.73
2023-02-06T02:28:10.423Z,1026.79
2023-02-06T02:28:50.879Z,1026.8
2023-02-06T02:29:31.410Z,1026.84
2023-02-06T02:30:11.956Z,1026.85
2023-02-06T02:30:52.551Z,1026.86
2023-02-06T02:31:34.039Z,1026.81
2023-02-06T02:32:14.564Z,1026.82
2023-02-06T02:32:55.111Z,1026.81
2023-02-06T02:33:35.627Z,1026.81
2023-02-06T02:34:16.162Z,1026.78
2023-02-06T02:34:56.760Z,1026.77
2023-02-06T02:35:37.582Z,1026.78
2023-02-06T02:36:18.583Z,1026.77
2023-02-06T02:36:59.082Z,1026.8
2023-02-06T02:37:39.596Z,1026.8
2023-02-06T02:38:20.143Z,1026.8
2023-02-06T02:39:00.656Z,1026.82
2023-02-06T02:39:41.204Z,1026.76
2023-02-06T02:40:21.722Z,1026.79
2023-02-06T02:41:02.205Z,1026.78
2023-02-06T02:43:16.849Z,1026.83
2023-02-06T02:43:57.362Z,1026.83
2023-02-06T02:44:39.480Z,1026.79
2023-02-06T02:45:19.349Z,1026.83
2023-02-06T02:45:59.877Z,1026.82
2023-02-06T02:47:52.652Z,1026.83
2023-02-06T02:48:33.167Z,1026.82
2023-02-06T02:49:13.764Z,1026.84
2023-02-06T02:49:54.307Z,1026.86
2023-02-06T02:50:34.777Z,1026.86
2023-02-06T02:51:15.310Z,1026.83
2023-02-06T02:51:55.800Z,1026.78
2023-02-06T02:52:36.264Z,1026.85
2023-02-06T02:53:16.864Z,1026.82
2023-02-06T02:53:57.409Z,1026.84
2023-02-06T02:54:37.920Z,1026.88
2023-02-06T02:55:18.468Z,1026.87
2023-02-06T02:55:58.987Z,1026.84
2023-02-06T02:56:39.506Z,1026.84
2023-02-06T02:57:20.002Z,1026.84
2023-02-06T02:58:00.510Z,1026.8
2023-02-06T02:58:41.044Z,1026.77
2023-02-06T02:59:21.509Z,1026.82
2023-02-06T03:00:02.053Z,1026.82
2023-02-06T03:00:42.603Z,1026.83
2023-02-06T03:01:23.156Z,1026.79
2023-02-06T03:02:03.739Z,1026.83
2023-02-06T03:02:44.256Z,1026.87
2023-02-06T03:03:24.763Z,1026.86
2023-02-06T03:05:38.177Z,1026.81
2023-02-06T03:06:18.598Z,1026.82
2023-02-06T03:06:59.154Z,1026.81
2023-02-06T03:07:39.667Z,1026.83
2023-02-06T03:08:20.179Z,1026.81
2023-02-06T03:09:00.703Z,1026.8
2023-02-06T03:09:41.248Z,1026.79
2023-02-06T03:10:21.797Z,1026.79
2023-02-06T03:11:02.353Z,1026.83
2023-02-06T03:11:42.904Z,1026.85
2023-02-06T03:12:23.454Z,1026.84
2023-02-06T03:13:04.819Z,1026.85
2023-02-06T03:13:45.404Z,1026.87
2023-02-06T03:14:25.923Z,1026.87
2023-02-06T03:15:06.443Z,1026.88
2023-02-06T03:15:46.975Z,1026.87
2023-02-06T03:16:27.522Z,1026.88
2023-02-06T03:17:08.021Z,1026.92
2023-02-06T03:17:48.588Z,1026.9
2023-02-06T03:18:29.120Z,1026.86
2023-02-06T03:19:09.677Z,1026.91
2023-02-06T03:19:50.227Z,1026.92
2023-02-06T03:20:30.779Z,1026.88
2023-02-06T03:21:11.317Z,1026.85
2023-02-06T03:21:51.809Z,1026.9
2023-02-06T03:22:32.329Z,1026.85
2023-02-06T03:23:13.596Z,1026.88
2023-02-06T03:23:54.970Z,1026.85
2023-02-06T03:24:35.520Z,1026.87
2023-02-06T03:25:16.073Z,1026.87
2023-02-06T03:25:56.616Z,1026.86
2023-02-06T03:27:54.907Z,1026.85
2023-02-06T03:28:35.391Z,1026.88
2023-02-06T03:29:16.077Z,1026.85
2023-02-06T03:29:56.437Z,1026.85
2023-02-06T03:30:36.970Z,1026.86
2023-02-06T03:31:17.506Z,1026.81
2023-02-06T03:31:58.123Z,1026.79
2023-02-06T03:32:38.608Z,1026.8
2023-02-06T03:33:19.148Z,1026.78
2023-02-06T03:33:59.696Z,1026.79
2023-02-06T03:34:40.252Z,1026.72
2023-02-06T03:35:20.790Z,1026.74
2023-02-06T03:37:18.763Z,1026.74
2023-02-06T03:37:59.286Z,1026.75
2023-02-06T03:38:39.806Z,1026.76
2023-02-06T03:39:20.405Z,1026.78
2023-02-06T03:40:00.871Z,1026.75
2023-02-06T03:40:41.358Z,1026.75
2023-02-06T03:41:22.063Z,1026.74
2023-02-06T03:42:02.590Z,1026.73
2023-02-06T03:42:43.106Z,1026.67
2023-02-06T03:43:23.651Z,1026.74
2023-02-06T03:45:37.087Z,1026.7
2023-02-06T03:46:18.032Z,1026.74
2023-02-06T03:46:58.480Z,1026.74
2023-02-06T03:47:39.018Z,1026.72
2023-02-06T03:48:20.087Z,1026.73
2023-02-06T03:49:00.646Z,1026.75
2023-02-06T03:49:41.152Z,1026.75
2023-02-06T03:50:21.659Z,1026.78
2023-02-06T03:51:02.160Z,1026.76
2023-02-06T03:51:42.688Z,1026.74
2023-02-06T03:52:23.196Z,1026.77
2023-02-06T03:53:03.687Z,1026.79
2023-02-06T03:53:44.197Z,1026.77
2023-02-06T03:54:24.734Z,1026.74
2023-02-06T03:55:05.423Z,1026.75
2023-02-06T03:57:33.552Z,1026.72
2023-02-06T03:58:14.069Z,1026.72
2023-02-06T03:58:54.566Z,1026.71
2023-02-06T03:59:35.097Z,1026.68
2023-02-06T04:00:15.645Z,1026.65
2023-02-06T04:00:56.307Z,1026.69
2023-02-06T04:01:36.870Z,1026.69
2023-02-06T04:02:17.406Z,1026.7
2023-02-06T04:02:57.976Z,1026.71
2023-02-06T04:03:38.464Z,1026.69
2023-02-06T04:04:18.985Z,1026.68
2023-02-06T04:04:59.563Z,1026.69
2023-02-06T04:05:40.119Z,1026.7
2023-02-06T04:06:20.768Z,1026.7
2023-02-06T04:07:01.332Z,1026.69
2023-02-06T04:07:42.711Z,1026.7
2023-02-06T04:08:23.182Z,1026.71
2023-02-06T04:09:03.779Z,1026.73
2023-02-06T04:09:44.315Z,1026.76
2023-02-06T04:11:58.541Z,1026.7
2023-02-06T04:12:40.018Z,1026.7
2023-02-06T04:13:20.574Z,1026.7
2023-02-06T04:14:01.066Z,1026.7
2023-02-06T04:14:41.625Z,1026.65
2023-02-06T04:15:22.268Z,1026.68
2023-02-06T04:16:03.683Z,1026.7
2023-02-06T04:16:44.258Z,1026.73
2023-02-06T04:17:40.927Z,1026.75
2023-02-06T04:19:37.840Z,1026.75
2023-02-06T04:20:18.398Z,1026.77
2023-02-06T04:20:58.937Z,1026.73
2023-02-06T04:21:39.653Z,1026.77
2023-02-06T04:22:20.230Z,1026.81
2023-02-06T04:23:00.814Z,1026.8
2023-02-06T04:23:41.570Z,1026.85
2023-02-06T04:24:22.098Z,1026.82
2023-02-06T04:25:02.618Z,1026.81
2023-02-06T04:25:44.588Z,1026.83
2023-02-06T04:26:25.392Z,1026.76
2023-02-06T04:27:05.876Z,1026.81
2023-02-06T04:27:46.349Z,1026.83
2023-02-06T04:28:26.859Z,1026.86
2023-02-06T04:29:07.367Z,1026.85
2023-02-06T04:29:48.008Z,1026.85
2023-02-06T04:30:28.632Z,1026.89
2023-02-06T04:31:09.249Z,1026.88
2023-02-06T04:33:37.646Z,1026.88
2023-02-06T04:34:18.148Z,1026.88
2023-02-06T04:34:58.706Z,1026.86
2023-02-06T04:35:39.308Z,1026.86
2023-02-06T04:36:19.847Z,1026.83
2023-02-06T04:37:00.402Z,1026.8
2023-02-06T04:37:40.954Z,1026.8
2023-02-06T04:38:21.498Z,1026.8
2023-02-06T04:39:02.033Z,1026.81
2023-02-06T04:39:42.547Z,1026.84
2023-02-06T04:40:23.052Z,1026.85
2023-02-06T04:41:03.605Z,1026.84
2023-02-06T04:41:44.167Z,1026.86
2023-02-06T04:42:24.822Z,1026.88
2023-02-06T04:43:06.031Z,1026.85
2023-02-06T04:43:46.527Z,1026.86
2023-02-06T04:44:27.040Z,1026.86
2023-02-06T04:45:07.579Z,1026.82
2023-02-06T04:47:35.648Z,1026.8
2023-02-06T04:48:16.883Z,1026.79
2023-02-06T04:48:57.409Z,1026.78
2023-02-06T04:49:38.762Z,1026.8
2023-02-06T04:50:19.272Z,1026.8
2023-02-06T04:50:59.818Z,1026.8
2023-02-06T04:51:40.363Z,1026.81
2023-02-06T04:52:20.934Z,1026.79
2023-02-06T04:53:01.472Z,1026.8
2023-02-06T04:53:42.005Z,1026.81
2023-02-06T04:54:22.579Z,1026.8
2023-02-06T04:55:03.795Z,1026.82
2023-02-06T04:55:44.286Z,1026.8
2023-02-06T04:56:25.350Z,1026.81
2023-02-06T04:57:05.854Z,1026.78
2023-02-06T04:57:46.414Z,1026.82
2023-02-06T04:58:26.932Z,1026.8
2023-02-06T04:59:07.457Z,1026.77
2023-02-06T04:59:49.594Z,1026.78
2023-02-06T05:00:30.144Z,1026.79
2023-02-06T05:01:10.718Z,1026.81
2023-02-06T05:01:52.014Z,1026.84
2023-02-06T05:04:12.420Z,1026.8
2023-02-06T05:04:52.881Z,1026.87
2023-02-06T05:05:33.525Z,1026.84
2023-02-06T05:06:14.033Z,1026.85
2023-02-06T05:06:55.181Z,1026.82
2023-02-06T05:07:36.247Z,1026.84
2023-02-06T05:08:16.809Z,1026.83
2023-02-06T05:08:58.068Z,1026.82
2023-02-06T05:10:50.902Z,1026.8
2023-02-06T05:11:31.468Z,1026.82
2023-02-06T05:12:14.180Z,1026.79
2023-02-06T05:12:53.083Z,1026.79
2023-02-06T05:13:33.617Z,1026.84
2023-02-06T05:15:47.623Z,1026.8
2023-02-06T05:16:28.097Z,1026.84
2023-02-06T05:17:08.637Z,1026.88
2023-02-06T05:17:52.941Z,1026.81
2023-02-06T05:18:33.434Z,1026.84
2023-02-06T05:19:17.738Z,1026.79
2023-02-06T05:19:59.723Z,1026.81
2023-02-06T05:20:40.208Z,1026.77
2023-02-06T05:21:21.526Z,1026.76
2023-02-06T05:22:03.777Z,1026.72
2023-02-06T05:22:44.232Z,1026.77
2023-02-06T05:23:25.698Z,1026.75
2023-02-06T05:25:41.363Z,1026.75
2023-02-06T05:26:19.905Z,1026.75
2023-02-06T05:27:00.395Z,1026.73
2023-02-06T05:27:40.874Z,1026.78
2023-02-06T05:28:21.399Z,1026.78
2023-02-06T05:29:01.928Z,1026.81
2023-02-06T05:29:42.407Z,1026.78
2023-02-06T05:30:22.977Z,1026.78
2023-02-06T05:31:03.500Z,1026.8
2023-02-06T05:31:43.956Z,1026.8
2023-02-06T05:32:24.464Z,1026.85
2023-02-06T05:33:04.950Z,1026.81
2023-02-06T05:33:45.414Z,1026.82
2023-02-06T05:34:25.987Z,1026.83
2023-02-06T05:35:06.509Z,1026.81
2023-02-06T05:35:47.028Z,1026.79
2023-02-06T05:36:27.605Z,1026.81
2023-02-06T05:37:08.165Z,1026.81
2023-02-06T05:37:48.752Z,1026.85
2023-02-06T05:38:29.298Z,1026.87
2023-02-06T05:39:09.833Z,1026.88
2023-02-06T05:39:50.379Z,1026.91
2023-02-06T05:40:30.903Z,1026.9
2023-02-06T05:41:11.444Z,1026.93
2023-02-06T05:41:51.950Z,1026.9
2023-02-06T05:42:32.466Z,1026.92
2023-02-06T05:43:13.004Z,1026.86
2023-02-06T05:43:53.504Z,1026.86
2023-02-06T05:44:34.051Z,1026.85
2023-02-06T05:45:14.571Z,1026.82
2023-02-06T05:45:55.136Z,1026.82
2023-02-06T05:46:35.687Z,1026.81
2023-02-06T05:47:16.224Z,1026.83
2023-02-06T05:47:56.808Z,1026.86
2023-02-06T05:48:37.342Z,1026.91
2023-02-06T05:49:17.876Z,1026.89
2023-02-06T05:49:59.317Z,1026.93
2023-02-06T05:50:40.635Z,1026.89
2023-02-06T05:52:52.549Z,1026.91
2023-02-06T05:53:34.062Z,1026.89
2023-02-06T05:54:14.561Z,1026.91
2023-02-06T05:54:55.628Z,1026.92
2023-02-06T05:55:36.584Z,1026.94
2023-02-06T05:56:16.698Z,1026.91
2023-02-06T05:56:57.259Z,1026.93
2023-02-06T05:57:37.835Z,1026.94
2023-02-06T05:58:18.382Z,1026.95
2023-02-06T05:58:58.947Z,1026.94
2023-02-06T05:59:39.453Z,1026.93
2023-02-06T06:01:37.135Z,1026.95
2023-02-06T06:02:17.653Z,1026.95
2023-02-06T06:02:58.170Z,1026.9
2023-02-06T06:03:39.559Z,1026.91
2023-02-06T06:04:20.137Z,1026.91
2023-02-06T06:05:00.671Z,1026.92
2023-02-06T06:05:41.104Z,1026.89
2023-02-06T06:06:21.606Z,1026.9
2023-02-06T06:08:34.907Z,1026.85
2023-02-06T06:09:15.427Z,1026.86
2023-02-06T06:09:56.759Z,1026.83
2023-02-06T06:10:37.295Z,1026.84
2023-02-06T06:11:17.928Z,1026.84
2023-02-06T06:11:58.451Z,1026.82
2023-02-06T06:12:38.963Z,1026.86
2023-02-06T06:13:19.486Z,1026.84
2023-02-06T06:14:00.018Z,1026.88
2023-02-06T06:14:40.516Z,1026.91
2023-02-06T06:15:21.061Z,1026.94
2023-02-06T06:16:01.635Z,1026.97
2023-02-06T06:16:42.075Z,1027
2023-02-06T06:17:22.625Z,1027.01
2023-02-06T06:18:03.170Z,1027.01
2023-02-06T06:18:43.743Z,1027.03
2023-02-06T06:19:24.226Z,1026.98
2023-02-06T06:20:04.746Z,1027.01
2023-02-06T06:20:45.828Z,1027.02
2023-02-06T06:21:26.304Z,1026.98
2023-02-06T06:22:06.857Z,1027.01
2023-02-06T06:22:47.378Z,1027.03
2023-02-06T06:23:27.856Z,1027.04
2023-02-06T06:24:08.944Z,1027.03
2023-02-06T06:24:49.464Z,1027.03
2023-02-06T06:27:03.030Z,1027.02
2023-02-06T06:27:43.645Z,1027.04
2023-02-06T06:28:24.075Z,1027.03
2023-02-06T06:29:04.641Z,1027.05
2023-02-06T06:29:46.126Z,1027.08
2023-02-06T06:30:26.636Z,1027.08
2023-02-06T06:31:07.246Z,1027.08
2023-02-06T06:33:20.376Z,1027.08
2023-02-06T06:34:01.859Z,1027.1
2023-02-06T06:34:42.363Z,1027.07
2023-02-06T06:35:22.915Z,1027.05
2023-02-06T06:36:03.482Z,1027.05
2023-02-06T06:36:44.052Z,1027.03
2023-02-06T06:37:24.603Z,1027.03
2023-02-06T06:38:05.875Z,1027.01
2023-02-06T06:38:46.946Z,1027.02
2023-02-06T06:39:27.478Z,1027.02
2023-02-06T06:40:07.985Z,1027.04
2023-02-06T06:42:06.419Z,1027.12
2023-02-06T06:42:46.951Z,1027.14
2023-02-06T06:43:27.473Z,1027.12
2023-02-06T06:44:08.028Z,1027.13
2023-02-06T06:44:50.427Z,1027.14
2023-02-06T06:45:30.986Z,1027.13
2023-02-06T06:46:11.495Z,1027.08
2023-02-06T06:46:51.974Z,1027.05
2023-02-06T06:47:32.587Z,1027
2023-02-06T06:48:13.106Z,1027.03
2023-02-06T06:48:53.660Z,1026.92
2023-02-06T06:49:34.204Z,1026.94
2023-02-06T06:50:14.733Z,1026.91
2023-02-06T06:50:55.275Z,1026.93
2023-02-06T06:51:35.861Z,1026.92
2023-02-06T06:52:24.689Z,1026.95
2023-02-06T06:52:56.922Z,1026.97
2023-02-06T06:53:37.438Z,1026.95
2023-02-06T06:54:17.960Z,1026.98
2023-02-06T06:54:58.508Z,1026.95
2023-02-06T06:55:39.044Z,1026.98
2023-02-06T06:57:51.831Z,1026.93
2023-02-06T06:58:32.361Z,1026.93
2023-02-06T06:59:12.888Z,1026.93
2023-02-06T06:59:53.429Z,1026.94
2023-02-06T07:00:33.978Z,1026.96
2023-02-06T07:01:14.425Z,1026.96
2023-02-06T07:01:54.930Z,1026.99
2023-02-06T07:02:35.443Z,1026.96
2023-02-06T07:03:16.024Z,1026.94
2023-02-06T07:03:56.499Z,1026.91
2023-02-06T07:04:37.047Z,1026.89
2023-02-06T07:05:17.603Z,1026.85
2023-02-06T07:05:58.153Z,1026.85
2023-02-06T07:06:38.711Z,1026.84
2023-02-06T07:07:19.264Z,1026.83
2023-02-06T07:07:59.735Z,1026.84
2023-02-06T07:08:40.277Z,1026.86
2023-02-06T07:09:20.786Z,1026.86
2023-02-06T07:10:01.293Z,1026.87
2023-02-06T07:10:41.797Z,1026.88
2023-02-06T07:12:54.869Z,1026.92
2023-02-06T07:13:35.419Z,1026.92
2023-02-06T07:14:15.923Z,1026.93
2023-02-06T07:14:56.432Z,1026.94
2023-02-06T07:15:37.326Z,1026.95
2023-02-06T07:16:17.567Z,1026.92
2023-02-06T07:16:58.072Z,1026.91
2023-02-06T07:18:50.987Z,1026.88
2023-02-06T07:19:32.404Z,1026.86
2023-02-06T07:20:13.673Z,1026.83
2023-02-06T07:20:54.169Z,1026.88
2023-02-06T07:21:35.528Z,1026.92
2023-02-06T07:22:16.023Z,1026.95
2023-02-06T07:22:56.458Z,1026.98
2023-02-06T07:23:37.853Z,1027
2023-02-06T07:24:18.372Z,1026.98
2023-02-06T07:24:58.908Z,1027
2023-02-06T07:25:39.575Z,1027.01
2023-02-06T07:27:52.686Z,1027.01
2023-02-06T07:28:33.275Z,1027.05
2023-02-06T07:29:14.370Z,1027.02
2023-02-06T07:29:54.917Z,1027.08
2023-02-06T07:30:35.414Z,1027.09
2023-02-06T07:31:15.925Z,1027.1
2023-02-06T07:31:56.469Z,1027.15
2023-02-06T07:32:37.016Z,1027.19
2023-02-06T07:33:17.456Z,1027.21
2023-02-06T07:33:57.963Z,1027.22
2023-02-06T07:34:38.504Z,1027.19
2023-02-06T07:35:19.060Z,1027.21
2023-02-06T07:36:00.717Z,1027.19
2023-02-06T07:36:40.012Z,1027.19
2023-02-06T07:37:20.617Z,1027.19
2023-02-06T07:39:33.639Z,1027.18
2023-02-06T07:40:14.249Z,1027.16
2023-02-06T07:40:54.840Z,1027.18
2023-02-06T07:41:35.494Z,1027.18
2023-02-06T07:42:16.026Z,1027.2
2023-02-06T07:42:56.925Z,1027.16
2023-02-06T07:44:49.853Z,1027.16
2023-02-06T07:45:30.400Z,1027.19
2023-02-06T07:46:11.807Z,1027.17
2023-02-06T07:46:52.327Z,1027.16
2023-02-06T07:47:32.851Z,1027.2
2023-02-06T07:48:13.427Z,1027.17
2023-02-06T07:48:53.974Z,1027.2
2023-02-06T07:49:34.545Z,1027.17
2023-02-06T07:50:15.100Z,1027.16
2023-02-06T07:50:55.607Z,1027.21
2023-02-06T07:52:48.499Z,1027.25
2023-02-06T07:53:28.977Z,1027.19
2023-02-06T07:54:09.480Z,1027.21
2023-02-06T07:54:49.989Z,1027.17
2023-02-06T07:55:30.529Z,1027.18
2023-02-06T07:56:10.985Z,1027.17
2023-02-06T07:56:51.525Z,1027.19
2023-02-06T07:57:31.990Z,1027.16
2023-02-06T07:58:12.518Z,1027.22
2023-02-06T07:58:53.013Z,1027.17
2023-02-06T07:59:33.518Z,1027.19
2023-02-06T08:00:14.081Z,1027.16
2023-02-06T08:00:54.669Z,1027.17
2023-02-06T08:01:35.717Z,1027.17
2023-02-06T08:03:28.779Z,1027.16
2023-02-06T08:04:09.282Z,1027.17
2023-02-06T08:04:49.842Z,1027.18
2023-02-06T08:05:30.862Z,1027.15
2023-02-06T08:06:11.411Z,1027.19
2023-02-06T08:06:52.016Z,1027.18
2023-02-06T08:07:32.479Z,1027.19
2023-02-06T08:08:13.047Z,1027.22
2023-02-06T08:08:53.557Z,1027.18
2023-02-06T08:09:34.055Z,1027.21
2023-02-06T08:10:14.587Z,1027.17
2023-02-06T08:10:55.222Z,1027.19
2023-02-06T08:11:35.774Z,1027.18
2023-02-06T08:12:16.303Z,1027.14
2023-02-06T08:12:56.763Z,1027.11
2023-02-06T08:13:37.309Z,1027.1
2023-02-06T08:14:17.818Z,1027.07
2023-02-06T08:16:31.625Z,1027.08
2023-02-06T08:17:13.827Z,1027.1
2023-02-06T08:17:54.380Z,1027.12
2023-02-06T08:18:35.831Z,1027.15
2023-02-06T08:20:35.284Z,1027.24
2023-02-06T08:21:15.824Z,1027.27
2023-02-06T08:21:56.355Z,1027.3
2023-02-06T08:22:37.873Z,1027.32
2023-02-06T08:24:51.047Z,1027.2
2023-02-06T08:25:31.531Z,1027.19
2023-02-06T08:26:12.152Z,1027.16
2023-02-06T08:26:52.590Z,1027.19
2023-02-06T08:27:33.209Z,1027.19
2023-02-06T08:28:13.762Z,1027.17
2023-02-06T08:28:54.272Z,1027.21
2023-02-06T08:29:34.765Z,1027.2
2023-02-06T08:30:15.264Z,1027.22
2023-02-06T08:30:56.715Z,1027.2
2023-02-06T08:31:38.111Z,1027.21
2023-02-06T08:32:18.536Z,1027.24
2023-02-06T08:32:59.601Z,1027.24
2023-02-06T08:33:40.121Z,1027.23
2023-02-06T08:34:20.616Z,1027.16
2023-02-06T08:35:01.773Z,1027.13
2023-02-06T08:35:42.362Z,1027.15
2023-02-06T08:36:22.820Z,1027.12
2023-02-06T08:37:03.370Z,1027.08
2023-02-06T08:37:43.960Z,1027.07
2023-02-06T08:38:24.672Z,1027.02
2023-02-06T08:40:39.078Z,1027.05
2023-02-06T08:41:20.263Z,1027.05
2023-02-06T08:42:00.825Z,1027.06
2023-02-06T08:42:41.357Z,1027.07
2023-02-06T08:44:54.622Z,1027.05
2023-02-06T08:45:36.033Z,1027.09
2023-02-06T08:46:17.089Z,1027.1
2023-02-06T08:47:09.113Z,1027.09
2023-02-06T08:49:16.769Z,1027.07
2023-02-06T08:49:57.882Z,1027.11
2023-02-06T08:50:38.372Z,1027.07
2023-02-06T08:51:18.870Z,1027.12
2023-02-06T08:53:35.300Z,1027
2023-02-06T08:54:17.183Z,1027.03
2023-02-06T08:54:59.320Z,1027.06
2023-02-06T08:55:40.974Z,1027.07
2023-02-06T08:56:22.183Z,1027.1
2023-02-06T08:58:16.479Z,1027.13
2023-02-06T08:58:57.807Z,1027.16
2023-02-06T08:59:38.918Z,1027.15
2023-02-06T09:00:20.141Z,1027.17
2023-02-06T09:01:00.668Z,1027.15
2023-02-06T09:02:54.745Z,1027.17
2023-02-06T09:03:36.105Z,1027.19
2023-02-06T09:04:16.642Z,1027.22
2023-02-06T09:04:57.131Z,1027.24
2023-02-06T09:05:39.622Z,1027.23
2023-02-06T09:06:20.901Z,1027.19
2023-02-06T09:07:02.168Z,1027.18
2023-02-06T09:09:15.246Z,1027.23
2023-02-06T09:09:55.810Z,1027.2
2023-02-06T09:10:36.340Z,1027.17
2023-02-06T09:11:17.007Z,1027.16
2023-02-06T09:13:36.102Z,1027.07
2023-02-06T09:14:16.705Z,1027.04
2023-02-06T09:14:57.274Z,1027.05
2023-02-06T09:15:38.236Z,1027.03
2023-02-06T09:17:51.575Z,1027.03
2023-02-06T09:18:32.743Z,1026.98
2023-02-06T09:19:15.483Z,1026.98
2023-02-06T09:19:57.672Z,1026.93
2023-02-06T09:20:38.230Z,1026.92
2023-02-06T09:21:19.689Z,1026.92
2023-02-06T09:23:13.030Z,1026.9
2023-02-06T09:23:53.524Z,1026.85
2023-02-06T09:24:33.991Z,1026.83
2023-02-06T09:25:14.523Z,1026.83
2023-02-06T09:25:55.753Z,1026.81
2023-02-06T09:26:37.561Z,1026.79
2023-02-06T09:27:16.788Z,1026.83
2023-02-06T09:29:29.982Z,1026.83
2023-02-06T09:30:11.471Z,1026.83
2023-02-06T09:30:52.108Z,1026.85
2023-02-06T09:31:32.764Z,1026.88
2023-02-06T09:32:13.338Z,1026.92
2023-02-06T09:32:53.881Z,1026.88
2023-02-06T09:33:34.434Z,1026.89
2023-02-06T09:34:14.948Z,1026.88
2023-02-06T09:34:55.531Z,1026.93
2023-02-06T09:35:36.404Z,1027.01
2023-02-06T09:36:16.600Z,1026.94
2023-02-06T09:36:57.184Z,1026.85
2023-02-06T09:37:37.745Z,1026.88
2023-02-06T09:38:18.294Z,1026.87